sensor_id;sensor_type;location;lat;lon;timestamp;P1;durP1;ratioP1;P2;durP2;ratioP2
15889;SDS011;8043;49.388;12.128;2023-05-02T00:04:02;10.23;;;5.70;;
15889;SDS011;8043;49.388;12.128;2023-05-02T00:09:05;14.07;;;6.47;;
15889;SDS011;8043;49.388;12.128;2023-05-02T00:14:07;11.00;;;6.20;;
15889;SDS011;8043;49.388;12.128;2023-05-02T00:19:10;12.37;;;6.20;;
15889;SDS011;8043;49.388;12.128;2023-05-02T00:24:13;8.13;;;5.20;;
15889;SDS011;8043;49.388;12.128;2023-05-02T00:29:15;14.20;;;6.93;;
15889;SDS011;8043;49.388;12.128;2023-05-02T00:34:18;11.37;;;5.90;;
15889;SDS011;8043;49.388;12.128;2023-05-02T00:39:20;13.43;;;6.37;;
15889;SDS011;8043;49.388;12.128;2023-05-02T00:44:23;10.90;;;5.80;;
15889;SDS011;8043;49.388;12.128;2023-05-02T00:49:25;15.30;;;8.20;;
15889;SDS011;8043;49.388;12.128;2023-05-02T00:54:27;16.37;;;7.43;;
15889;SDS011;8043;49.388;12.128;2023-05-02T00:59:32;14.13;;;6.93;;
15889;SDS011;8043;49.388;12.128;2023-05-02T01:15:44;14.97;;;6.67;;
15889;SDS011;8043;49.388;12.128;2023-05-02T01:20:47;14.40;;;7.73;;
15889;SDS011;8043;49.388;12.128;2023-05-02T01:25:55;22.07;;;9.57;;
15889;SDS011;8043;49.388;12.128;2023-05-02T01:31:15;15.87;;;6.67;;
15889;SDS011;8043;49.388;12.128;2023-05-02T01:36:19;8.70;;;5.43;;
15889;SDS011;8043;49.388;12.128;2023-05-02T01:41:22;11.60;;;5.50;;
15889;SDS011;8043;49.388;12.128;2023-05-02T01:46:26;9.03;;;5.63;;
15889;SDS011;8043;49.388;12.128;2023-05-02T01:51:33;10.13;;;5.40;;
15889;SDS011;8043;49.388;12.128;2023-05-02T01:56:37;9.80;;;5.10;;
15889;SDS011;8043;49.388;12.128;2023-05-02T02:01:39;8.80;;;4.63;;
15889;SDS011;8043;49.388;12.128;2023-05-02T02:06:44;8.63;;;4.70;;
15889;SDS011;8043;49.388;12.128;2023-05-02T02:11:56;9.80;;;5.23;;
15889;SDS011;8043;49.388;12.128;2023-05-02T02:16:54;8.00;;;5.13;;
15889;SDS011;8043;49.388;12.128;2023-05-02T02:21:59;10.53;;;5.73;;
15889;SDS011;8043;49.388;12.128;2023-05-02T02:27:01;9.27;;;5.67;;
15889;SDS011;8043;49.388;12.128;2023-05-02T02:32:04;9.13;;;5.40;;
15889;SDS011;8043;49.388;12.128;2023-05-02T02:37:13;11.27;;;6.17;;
15889;SDS011;8043;49.388;12.128;2023-05-02T02:52:56;11.17;;;5.73;;
15889;SDS011;8043;49.388;12.128;2023-05-02T02:58:47;8.70;;;5.73;;
15889;SDS011;8043;49.388;12.128;2023-05-02T03:03:21;10.67;;;6.03;;
15889;SDS011;8043;49.388;12.128;2023-05-02T03:08:25;12.83;;;6.77;;
15889;SDS011;8043;49.388;12.128;2023-05-02T03:13:27;15.10;;;6.77;;
15889;SDS011;8043;49.388;12.128;2023-05-02T03:18:30;10.87;;;6.00;;
15889;SDS011;8043;49.388;12.128;2023-05-02T03:23:33;9.57;;;5.70;;
15889;SDS011;8043;49.388;12.128;2023-05-02T03:28:36;7.80;;;4.73;;
15889;SDS011;8043;49.388;12.128;2023-05-02T03:33:38;9.87;;;5.33;;
15889;SDS011;8043;49.388;12.128;2023-05-02T03:38:41;10.40;;;5.63;;
15889;SDS011;8043;49.388;12.128;2023-05-02T03:43:43;10.23;;;5.87;;
15889;SDS011;8043;49.388;12.128;2023-05-02T03:48:46;10.37;;;4.97;;
15889;SDS011;8043;49.388;12.128;2023-05-02T03:53:48;7.93;;;4.43;;
15889;SDS011;8043;49.388;12.128;2023-05-02T03:58:50;7.73;;;5.20;;
15889;SDS011;8043;49.388;12.128;2023-05-02T04:03:52;10.17;;;6.20;;
15889;SDS011;8043;49.388;12.128;2023-05-02T04:08:55;9.17;;;5.67;;
15889;SDS011;8043;49.388;12.128;2023-05-02T04:13:58;11.30;;;6.53;;
15889;SDS011;8043;49.388;12.128;2023-05-02T04:19:01;14.33;;;6.33;;
15889;SDS011;8043;49.388;12.128;2023-05-02T04:24:04;9.93;;;6.07;;
15889;SDS011;8043;49.388;12.128;2023-05-02T04:29:06;10.90;;;6.03;;
15889;SDS011;8043;49.388;12.128;2023-05-02T04:34:08;10.90;;;5.63;;
15889;SDS011;8043;49.388;12.128;2023-05-02T04:39:11;15.20;;;7.23;;
15889;SDS011;8043;49.388;12.128;2023-05-02T04:44:13;11.17;;;6.10;;
15889;SDS011;8043;49.388;12.128;2023-05-02T04:49:16;10.67;;;5.63;;
15889;SDS011;8043;49.388;12.128;2023-05-02T04:54:18;11.53;;;6.00;;
15889;SDS011;8043;49.388;12.128;2023-05-02T04:59:21;12.30;;;7.63;;
15889;SDS011;8043;49.388;12.128;2023-05-02T05:04:24;12.20;;;6.70;;
15889;SDS011;8043;49.388;12.128;2023-05-02T05:09:26;14.17;;;7.30;;
15889;SDS011;8043;49.388;12.128;2023-05-02T05:14:28;12.20;;;7.13;;
15889;SDS011;8043;49.388;12.128;2023-05-02T05:19:31;14.50;;;7.60;;
15889;SDS011;8043;49.388;12.128;2023-05-02T05:24:33;13.83;;;7.50;;
15889;SDS011;8043;49.388;12.128;2023-05-02T05:29:36;15.00;;;7.10;;
15889;SDS011;8043;49.388;12.128;2023-05-02T05:34:38;14.20;;;7.00;;
15889;SDS011;8043;49.388;12.128;2023-05-02T05:39:40;14.47;;;7.57;;
15889;SDS011;8043;49.388;12.128;2023-05-02T05:44:42;10.73;;;6.37;;
15889;SDS011;8043;49.388;12.128;2023-05-02T05:49:45;12.17;;;7.10;;
15889;SDS011;8043;49.388;12.128;2023-05-02T05:54:47;11.47;;;6.87;;
15889;SDS011;8043;49.388;12.128;2023-05-02T05:59:49;12.70;;;7.50;;
15889;SDS011;8043;49.388;12.128;2023-05-02T06:04:51;13.37;;;6.70;;
15889;SDS011;8043;49.388;12.128;2023-05-02T06:09:54;14.67;;;7.60;;
15889;SDS011;8043;49.388;12.128;2023-05-02T06:14:56;11.43;;;6.70;;
15889;SDS011;8043;49.388;12.128;2023-05-02T06:19:58;14.97;;;8.00;;
15889;SDS011;8043;49.388;12.128;2023-05-02T06:25:01;14.83;;;7.90;;
15889;SDS011;8043;49.388;12.128;2023-05-02T06:30:05;14.17;;;7.50;;
15889;SDS011;8043;49.388;12.128;2023-05-02T06:35:09;12.57;;;7.37;;
15889;SDS011;8043;49.388;12.128;2023-05-02T06:40:11;15.57;;;8.00;;
15889;SDS011;8043;49.388;12.128;2023-05-02T06:45:14;16.93;;;7.77;;
15889;SDS011;8043;49.388;12.128;2023-05-02T06:50:16;13.13;;;7.47;;
15889;SDS011;8043;49.388;12.128;2023-05-02T06:55:20;16.37;;;8.83;;
15889;SDS011;8043;49.388;12.128;2023-05-02T07:00:23;17.33;;;9.63;;
15889;SDS011;8043;49.388;12.128;2023-05-02T07:05:25;15.67;;;9.53;;
15889;SDS011;8043;49.388;12.128;2023-05-02T07:10:28;14.50;;;7.63;;
15889;SDS011;8043;49.388;12.128;2023-05-02T07:15:30;15.80;;;8.80;;
15889;SDS011;8043;49.388;12.128;2023-05-02T07:20:33;13.83;;;8.13;;
15889;SDS011;8043;49.388;12.128;2023-05-02T07:25:35;16.13;;;8.63;;
15889;SDS011;8043;49.388;12.128;2023-05-02T07:30:39;21.90;;;11.40;;
15889;SDS011;8043;49.388;12.128;2023-05-02T07:35:41;17.30;;;8.20;;
15889;SDS011;8043;49.388;12.128;2023-05-02T07:40:44;14.37;;;8.83;;
15889;SDS011;8043;49.388;12.128;2023-05-02T07:45:46;17.20;;;9.20;;
15889;SDS011;8043;49.388;12.128;2023-05-02T07:50:49;15.53;;;9.63;;
15889;SDS011;8043;49.388;12.128;2023-05-02T07:55:51;17.57;;;9.80;;
15889;SDS011;8043;49.388;12.128;2023-05-02T08:00:53;18.20;;;9.30;;
15889;SDS011;8043;49.388;12.128;2023-05-02T08:05:56;17.30;;;9.30;;
15889;SDS011;8043;49.388;12.128;2023-05-02T08:10:59;16.00;;;9.00;;
15889;SDS011;8043;49.388;12.128;2023-05-02T08:16:01;15.63;;;8.60;;
15889;SDS011;8043;49.388;12.128;2023-05-02T08:21:04;14.70;;;8.30;;
15889;SDS011;8043;49.388;12.128;2023-05-02T08:26:06;12.93;;;8.33;;
15889;SDS011;8043;49.388;12.128;2023-05-02T08:31:08;12.40;;;8.17;;
15889;SDS011;8043;49.388;12.128;2023-05-02T08:36:11;16.60;;;8.43;;
15889;SDS011;8043;49.388;12.128;2023-05-02T08:41:14;20.77;;;8.70;;
15889;SDS011;8043;49.388;12.128;2023-05-02T08:46:18;13.93;;;7.97;;
15889;SDS011;8043;49.388;12.128;2023-05-02T08:51:21;13.70;;;8.27;;
15889;SDS011;8043;49.388;12.128;2023-05-02T08:56:24;14.93;;;7.83;;
15889;SDS011;8043;49.388;12.128;2023-05-02T09:01:27;12.37;;;7.10;;
15889;SDS011;8043;49.388;12.128;2023-05-02T09:06:31;13.27;;;7.00;;
15889;SDS011;8043;49.388;12.128;2023-05-02T09:11:34;24.23;;;8.87;;
15889;SDS011;8043;49.388;12.128;2023-05-02T09:16:37;10.57;;;5.80;;
15889;SDS011;8043;49.388;12.128;2023-05-02T09:21:40;14.03;;;7.27;;
15889;SDS011;8043;49.388;12.128;2023-05-02T09:26:42;11.53;;;6.77;;
15889;SDS011;8043;49.388;12.128;2023-05-02T09:31:46;12.87;;;6.00;;
15889;SDS011;8043;49.388;12.128;2023-05-02T09:36:49;11.13;;;6.67;;
15889;SDS011;8043;49.388;12.128;2023-05-02T09:41:54;11.80;;;6.80;;
15889;SDS011;8043;49.388;12.128;2023-05-02T09:46:57;12.10;;;6.13;;
15889;SDS011;8043;49.388;12.128;2023-05-02T09:52:11;9.93;;;6.10;;
15889;SDS011;8043;49.388;12.128;2023-05-02T09:57:15;13.53;;;6.73;;
15889;SDS011;8043;49.388;12.128;2023-05-02T10:02:17;10.80;;;6.60;;
15889;SDS011;8043;49.388;12.128;2023-05-02T10:07:21;10.63;;;7.07;;
15889;SDS011;8043;49.388;12.128;2023-05-02T10:12:23;11.27;;;6.53;;
15889;SDS011;8043;49.388;12.128;2023-05-02T10:17:30;14.53;;;6.67;;
15889;SDS011;8043;49.388;12.128;2023-05-02T10:22:42;11.80;;;6.97;;
15889;SDS011;8043;49.388;12.128;2023-05-02T10:27:46;11.13;;;6.60;;
15889;SDS011;8043;49.388;12.128;2023-05-02T10:32:48;12.30;;;6.77;;
15889;SDS011;8043;49.388;12.128;2023-05-02T10:37:54;9.83;;;5.53;;
15889;SDS011;8043;49.388;12.128;2023-05-02T10:42:58;10.27;;;6.07;;
15889;SDS011;8043;49.388;12.128;2023-05-02T10:48:17;13.60;;;6.40;;
15889;SDS011;8043;49.388;12.128;2023-05-02T10:53:22;12.57;;;7.23;;
15889;SDS011;8043;49.388;12.128;2023-05-02T10:58:25;11.33;;;6.47;;
15889;SDS011;8043;49.388;12.128;2023-05-02T11:24:49;12.60;;;7.60;;
15889;SDS011;8043;49.388;12.128;2023-05-02T11:29:52;13.67;;;6.80;;
15889;SDS011;8043;49.388;12.128;2023-05-02T11:34:55;9.60;;;5.87;;
15889;SDS011;8043;49.388;12.128;2023-05-02T11:40:11;9.13;;;5.47;;
15889;SDS011;8043;49.388;12.128;2023-05-02T11:45:14;11.03;;;6.33;;
15889;SDS011;8043;49.388;12.128;2023-05-02T11:50:16;9.10;;;4.97;;
15889;SDS011;8043;49.388;12.128;2023-05-02T11:55:19;11.97;;;5.77;;
15889;SDS011;8043;49.388;12.128;2023-05-02T12:00:25;10.10;;;6.45;;
15889;SDS011;8043;49.388;12.128;2023-05-02T12:05:27;9.20;;;5.33;;
15889;SDS011;8043;49.388;12.128;2023-05-02T12:10:36;10.37;;;6.07;;
15889;SDS011;8043;49.388;12.128;2023-05-02T12:15:38;8.97;;;4.67;;
15889;SDS011;8043;49.388;12.128;2023-05-02T12:20:41;9.30;;;5.27;;
15889;SDS011;8043;49.388;12.128;2023-05-02T12:25:44;8.43;;;3.77;;
15889;SDS011;8043;49.388;12.128;2023-05-02T12:30:47;3.70;;;2.83;;
15889;SDS011;8043;49.388;12.128;2023-05-02T12:35:50;7.37;;;3.93;;
15889;SDS011;8043;49.388;12.128;2023-05-02T12:40:53;5.27;;;3.40;;
15889;SDS011;8043;49.388;12.128;2023-05-02T12:46:08;5.93;;;3.80;;
15889;SDS011;8043;49.388;12.128;2023-05-02T12:51:21;6.27;;;3.97;;
15889;SDS011;8043;49.388;12.128;2023-05-02T12:56:27;3.20;;;2.77;;
15889;SDS011;8043;49.388;12.128;2023-05-02T13:01:32;6.33;;;3.10;;
15889;SDS011;8043;49.388;12.128;2023-05-02T13:06:34;7.03;;;3.60;;
15889;SDS011;8043;49.388;12.128;2023-05-02T13:11:37;5.87;;;3.30;;
15889;SDS011;8043;49.388;12.128;2023-05-02T13:16:39;4.77;;;2.90;;
15889;SDS011;8043;49.388;12.128;2023-05-02T13:21:42;5.13;;;3.00;;
15889;SDS011;8043;49.388;12.128;2023-05-02T13:26:44;3.90;;;2.93;;
15889;SDS011;8043;49.388;12.128;2023-05-02T13:31:47;5.67;;;3.10;;
15889;SDS011;8043;49.388;12.128;2023-05-02T13:36:49;6.33;;;3.60;;
15889;SDS011;8043;49.388;12.128;2023-05-02T13:41:51;5.43;;;3.40;;
15889;SDS011;8043;49.388;12.128;2023-05-02T13:46:53;5.77;;;3.00;;
15889;SDS011;8043;49.388;12.128;2023-05-02T13:51:56;6.67;;;2.75;;
15889;SDS011;8043;49.388;12.128;2023-05-02T13:56:58;4.70;;;2.47;;
15889;SDS011;8043;49.388;12.128;2023-05-02T14:02:02;3.77;;;2.67;;
15889;SDS011;8043;49.388;12.128;2023-05-02T14:07:05;3.43;;;2.30;;
15889;SDS011;8043;49.388;12.128;2023-05-02T14:12:07;6.30;;;3.40;;
15889;SDS011;8043;49.388;12.128;2023-05-02T14:17:09;5.47;;;3.03;;
15889;SDS011;8043;49.388;12.128;2023-05-02T14:22:12;5.40;;;3.30;;
15889;SDS011;8043;49.388;12.128;2023-05-02T14:27:15;7.03;;;3.83;;
15889;SDS011;8043;49.388;12.128;2023-05-02T14:32:20;8.43;;;5.00;;
15889;SDS011;8043;49.388;12.128;2023-05-02T14:37:23;6.87;;;3.90;;
15889;SDS011;8043;49.388;12.128;2023-05-02T14:42:25;8.03;;;3.77;;
15889;SDS011;8043;49.388;12.128;2023-05-02T14:47:30;6.37;;;3.93;;
15889;SDS011;8043;49.388;12.128;2023-05-02T14:52:32;6.93;;;4.03;;
15889;SDS011;8043;49.388;12.128;2023-05-02T14:57:34;4.50;;;3.27;;
15889;SDS011;8043;49.388;12.128;2023-05-02T15:02:41;6.07;;;3.37;;
15889;SDS011;8043;49.388;12.128;2023-05-02T15:07:43;6.53;;;3.03;;
15889;SDS011;8043;49.388;12.128;2023-05-02T15:12:45;4.70;;;3.60;;
15889;SDS011;8043;49.388;12.128;2023-05-02T15:17:50;5.60;;;3.63;;
15889;SDS011;8043;49.388;12.128;2023-05-02T15:22:52;6.43;;;3.67;;
15889;SDS011;8043;49.388;12.128;2023-05-02T15:27:55;3.47;;;2.87;;
15889;SDS011;8043;49.388;12.128;2023-05-02T15:32:57;5.03;;;3.13;;
15889;SDS011;8043;49.388;12.128;2023-05-02T15:37:59;5.97;;;3.43;;
15889;SDS011;8043;49.388;12.128;2023-05-02T15:43:02;6.30;;;3.57;;
15889;SDS011;8043;49.388;12.128;2023-05-02T15:48:07;5.53;;;3.57;;
15889;SDS011;8043;49.388;12.128;2023-05-02T15:53:10;5.33;;;3.23;;
15889;SDS011;8043;49.388;12.128;2023-05-02T15:58:12;8.13;;;3.60;;
15889;SDS011;8043;49.388;12.128;2023-05-02T16:03:15;5.63;;;3.90;;
15889;SDS011;8043;49.388;12.128;2023-05-02T16:08:17;5.97;;;3.57;;
15889;SDS011;8043;49.388;12.128;2023-05-02T16:13:20;3.70;;;2.83;;
15889;SDS011;8043;49.388;12.128;2023-05-02T16:18:22;5.70;;;2.90;;
15889;SDS011;8043;49.388;12.128;2023-05-02T16:23:26;4.20;;;2.63;;
15889;SDS011;8043;49.388;12.128;2023-05-02T16:28:28;3.50;;;2.57;;
15889;SDS011;8043;49.388;12.128;2023-05-02T16:33:31;3.97;;;2.77;;
15889;SDS011;8043;49.388;12.128;2023-05-02T16:38:33;4.03;;;2.80;;
15889;SDS011;8043;49.388;12.128;2023-05-02T16:43:36;3.70;;;2.23;;
15889;SDS011;8043;49.388;12.128;2023-05-02T16:48:39;3.60;;;2.30;;
15889;SDS011;8043;49.388;12.128;2023-05-02T16:53:41;2.97;;;2.10;;
15889;SDS011;8043;49.388;12.128;2023-05-02T16:58:45;4.20;;;2.70;;
15889;SDS011;8043;49.388;12.128;2023-05-02T17:03:47;2.83;;;2.10;;
15889;SDS011;8043;49.388;12.128;2023-05-02T17:08:50;2.67;;;2.00;;
15889;SDS011;8043;49.388;12.128;2023-05-02T17:13:53;4.83;;;1.83;;
15889;SDS011;8043;49.388;12.128;2023-05-02T17:18:55;4.10;;;1.77;;
15889;SDS011;8043;49.388;12.128;2023-05-02T17:24:00;3.93;;;2.10;;
15889;SDS011;8043;49.388;12.128;2023-05-02T17:29:03;5.23;;;2.20;;
15889;SDS011;8043;49.388;12.128;2023-05-02T17:34:05;4.30;;;2.37;;
15889;SDS011;8043;49.388;12.128;2023-05-02T17:39:08;3.47;;;2.50;;
15889;SDS011;8043;49.388;12.128;2023-05-02T17:44:12;3.33;;;2.33;;
15889;SDS011;8043;49.388;12.128;2023-05-02T17:49:15;3.73;;;2.50;;
15889;SDS011;8043;49.388;12.128;2023-05-02T17:54:18;2.57;;;2.13;;
15889;SDS011;8043;49.388;12.128;2023-05-02T17:59:21;3.97;;;2.10;;
15889;SDS011;8043;49.388;12.128;2023-05-02T18:04:24;4.53;;;2.53;;
15889;SDS011;8043;49.388;12.128;2023-05-02T18:09:26;7.13;;;3.50;;
15889;SDS011;8043;49.388;12.128;2023-05-02T18:14:28;4.93;;;2.90;;
15889;SDS011;8043;49.388;12.128;2023-05-02T18:19:31;7.63;;;4.20;;
15889;SDS011;8043;49.388;12.128;2023-05-02T18:24:34;6.33;;;3.53;;
15889;SDS011;8043;49.388;12.128;2023-05-02T18:29:36;6.10;;;4.13;;
15889;SDS011;8043;49.388;12.128;2023-05-02T18:34:39;7.00;;;4.10;;
15889;SDS011;8043;49.388;12.128;2023-05-02T18:39:42;6.17;;;3.83;;
15889;SDS011;8043;49.388;12.128;2023-05-02T18:44:45;5.93;;;3.80;;
15889;SDS011;8043;49.388;12.128;2023-05-02T18:49:48;6.83;;;4.13;;
15889;SDS011;8043;49.388;12.128;2023-05-02T18:54:53;7.10;;;3.60;;
15889;SDS011;8043;49.388;12.128;2023-05-02T18:59:55;7.07;;;3.83;;
15889;SDS011;8043;49.388;12.128;2023-05-02T19:05:00;8.47;;;3.47;;
15889;SDS011;8043;49.388;12.128;2023-05-02T19:10:04;6.27;;;3.27;;
15889;SDS011;8043;49.388;12.128;2023-05-02T19:15:08;8.43;;;3.40;;
15889;SDS011;8043;49.388;12.128;2023-05-02T19:20:11;4.73;;;3.20;;
15889;SDS011;8043;49.388;12.128;2023-05-02T19:25:14;6.40;;;3.47;;
15889;SDS011;8043;49.388;12.128;2023-05-02T19:30:17;6.60;;;3.03;;
15889;SDS011;8043;49.388;12.128;2023-05-02T19:35:21;3.67;;;2.53;;
15889;SDS011;8043;49.388;12.128;2023-05-02T19:40:24;4.43;;;2.90;;
15889;SDS011;8043;49.388;12.128;2023-05-02T19:45:28;5.53;;;2.87;;
15889;SDS011;8043;49.388;12.128;2023-05-02T19:50:31;6.20;;;2.90;;
15889;SDS011;8043;49.388;12.128;2023-05-02T19:55:34;8.57;;;3.07;;
15889;SDS011;8043;49.388;12.128;2023-05-02T20:00:37;6.37;;;2.57;;
15889;SDS011;8043;49.388;12.128;2023-05-02T20:05:41;3.47;;;2.30;;
15889;SDS011;8043;49.388;12.128;2023-05-02T20:10:43;3.10;;;2.17;;
15889;SDS011;8043;49.388;12.128;2023-05-02T20:15:49;9.13;;;3.03;;
15889;SDS011;8043;49.388;12.128;2023-05-02T20:20:53;5.83;;;2.50;;
15889;SDS011;8043;49.388;12.128;2023-05-02T20:25:57;3.03;;;1.83;;
15889;SDS011;8043;49.388;12.128;2023-05-02T20:31:05;3.93;;;2.47;;
15889;SDS011;8043;49.388;12.128;2023-05-02T20:36:04;4.43;;;2.67;;
15889;SDS011;8043;49.388;12.128;2023-05-02T20:41:07;6.43;;;2.37;;
15889;SDS011;8043;49.388;12.128;2023-05-02T20:46:11;3.50;;;2.20;;
15889;SDS011;8043;49.388;12.128;2023-05-02T20:51:18;4.97;;;2.70;;
15889;SDS011;8043;49.388;12.128;2023-05-02T20:56:21;5.00;;;2.23;;
15889;SDS011;8043;49.388;12.128;2023-05-02T21:01:25;5.10;;;2.43;;
15889;SDS011;8043;49.388;12.128;2023-05-02T21:06:27;3.30;;;2.27;;
15889;SDS011;8043;49.388;12.128;2023-05-02T21:11:32;5.17;;;2.87;;
15889;SDS011;8043;49.388;12.128;2023-05-02T21:16:35;6.73;;;2.53;;
15889;SDS011;8043;49.388;12.128;2023-05-02T21:21:38;3.77;;;2.53;;
15889;SDS011;8043;49.388;12.128;2023-05-02T21:26:40;3.87;;;2.37;;
15889;SDS011;8043;49.388;12.128;2023-05-02T21:31:43;5.00;;;2.65;;
15889;SDS011;8043;49.388;12.128;2023-05-02T21:36:46;5.70;;;2.90;;
15889;SDS011;8043;49.388;12.128;2023-05-02T21:41:49;6.47;;;3.17;;
15889;SDS011;8043;49.388;12.128;2023-05-02T21:46:51;9.73;;;2.77;;
15889;SDS011;8043;49.388;12.128;2023-05-02T21:51:54;6.50;;;3.33;;
15889;SDS011;8043;49.388;12.128;2023-05-02T21:56:58;6.70;;;2.90;;
15889;SDS011;8043;49.388;12.128;2023-05-02T22:02:02;4.90;;;2.60;;
15889;SDS011;8043;49.388;12.128;2023-05-02T22:07:04;6.23;;;3.37;;
15889;SDS011;8043;49.388;12.128;2023-05-02T22:12:06;6.17;;;3.23;;
15889;SDS011;8043;49.388;12.128;2023-05-02T22:17:09;6.30;;;3.10;;
15889;SDS011;8043;49.388;12.128;2023-05-02T22:22:11;5.93;;;3.07;;
15889;SDS011;8043;49.388;12.128;2023-05-02T22:27:14;4.13;;;2.83;;
15889;SDS011;8043;49.388;12.128;2023-05-02T22:32:16;5.43;;;3.43;;
15889;SDS011;8043;49.388;12.128;2023-05-02T22:37:19;5.23;;;2.97;;
15889;SDS011;8043;49.388;12.128;2023-05-02T22:42:22;5.53;;;3.47;;
15889;SDS011;8043;49.388;12.128;2023-05-02T22:47:24;4.93;;;3.10;;
15889;SDS011;8043;49.388;12.128;2023-05-02T22:52:28;7.30;;;3.37;;
15889;SDS011;8043;49.388;12.128;2023-05-02T22:57:31;5.80;;;3.33;;
15889;SDS011;8043;49.388;12.128;2023-05-02T23:02:33;4.73;;;3.03;;
15889;SDS011;8043;49.388;12.128;2023-05-02T23:07:36;5.67;;;2.97;;
15889;SDS011;8043;49.388;12.128;2023-05-02T23:12:38;7.27;;;2.83;;
15889;SDS011;8043;49.388;12.128;2023-05-02T23:17:41;4.07;;;2.53;;
15889;SDS011;8043;49.388;12.128;2023-05-02T23:22:44;6.63;;;3.00;;
15889;SDS011;8043;49.388;12.128;2023-05-02T23:27:46;5.33;;;3.13;;
15889;SDS011;8043;49.388;12.128;2023-05-02T23:32:49;4.67;;;2.77;;
15889;SDS011;8043;49.388;12.128;2023-05-02T23:37:51;6.37;;;3.20;;
15889;SDS011;8043;49.388;12.128;2023-05-02T23:42:53;4.40;;;2.90;;
15889;SDS011;8043;49.388;12.128;2023-05-02T23:47:56;4.67;;;2.83;;
15889;SDS011;8043;49.388;12.128;2023-05-02T23:52:58;6.93;;;3.17;;
15889;SDS011;8043;49.388;12.128;2023-05-02T23:58:00;5.83;;;3.27;;
